• Join FlightAware (Why Join?)
  • Login
  • US Flag 
07:28AM EDT


 

Airport Tracker/Info


-or-


 

Live Flight TrackerFlight Track Log ✈ C-FDQV ✈ 29-Apr-2012 ✈ CYVR - CYUL

Flight Track Log - Related Links

Times and Time Zones

All times are in EDT time to prevent confusion due to time zone crossing. See the C-FDQV flight status page for this flight to view local times or setup timezone preferences in your user account.

Time Position Orientation Groundspeed Altitude Reporting Facility
EDT Latitude Longitude Course Direction KTS MPH feet Rate Location/Type
12:08PM 49.1628 -123.1765 278° West  Level FlightAware Approximate
12:08PM 49.1667 -123.2167 270° West 130 150 600  Level Vancouver Center
12:09PM 49.1667 -123.2833 224° Southwest 170 196 2,700 1,680 Climbing Vancouver Center
12:10PM 49.1333 -123.3333 168° South 190 219 4,000 1,260 Climbing Vancouver Center
12:11PM 49.0833 -123.3167 104° East 240 276 5,300 2,100 Climbing Vancouver Center
12:12PM 49.0667 -123.2167 101° East 270 311 8,200 2,400 Climbing Vancouver Center
12:13PM 49.0500 -123.0833 102° East 300 345 10,200 1,440 Climbing Vancouver Center
12:14PM 49.0333 -122.9667 90° East 340 391 11,100 840 Climbing Vancouver Center
12:15PM 49.0333 -122.7833 82° East 400 460 11,900 1,200 Climbing Vancouver Center
12:16PM 49.0500 -122.6000 90° East 420 483 13,600 1,560 Climbing Vancouver Center
12:17PM 49.0500 -122.4167 83° East 440 506 15,100 1,740 Climbing Vancouver Center
12:18PM 49.0667 -122.2167 90° East 450 518 17,100 1,500 Climbing Vancouver Center
12:19PM 49.0667 -122.0333 83° East 460 529 18,200 1,200 Climbing Vancouver Center
12:20PM 49.0833 -121.8333 83° East 470 541 19,500 1,200 Climbing Vancouver Center
12:21PM 49.1000 -121.6333 83° East 480 552 20,700 1,020 Climbing Vancouver Center
12:22PM 49.1167 -121.4333 90° East 490 564 21,600 960 Climbing Vancouver Center
12:23PM 49.1167 -121.2000 83° East 500 575 22,700 1,140 Climbing Vancouver Center
12:24PM 49.1333 -121.0000 84° East 510 587 23,900 960 Climbing Vancouver Center
12:25PM 49.1500 -120.7667 83° East 510 587 24,700 900 Climbing Vancouver Center
12:26PM 49.1667 -120.5500 90° East 520 598 25,800 1,080 Climbing Vancouver Center
12:27PM 49.1667 -120.3333 77° East 520 598 26,900 1,020 Climbing Vancouver Center
12:28PM 49.2000 -120.1167 84° East 510 587 27,900 900 Climbing Vancouver Center
12:29PM 49.2167 -119.8833 76° East 510 587 28,700 900 Climbing Vancouver Center
12:30PM 49.2500 -119.6833 83° East 510 587 29,800 900 Climbing Vancouver Center
12:31PM 49.2667 -119.4667 76° East 510 587 30,600 960 Climbing Vancouver Center
12:32PM 49.3000 -119.2667 83° East 500 575 31,800 900 Climbing Vancouver Center
12:33PM 49.3167 -119.0667 77° East 500 575 32,400 600 Climbing Vancouver Center
12:34PM 49.3500 -118.8500 90° East 500 575 33,100 600 Climbing Vancouver Center
12:35PM 49.3500 -118.6500 70° East 500 575 33,600 540 Climbing Vancouver Center
12:36PM 49.4000 -118.4333 90° East 500 575 34,200 480 Climbing Vancouver Center
12:37PM 49.4000 -118.2333 78° East 500 575 34,600 360 Climbing Vancouver Center
12:38PM 49.4333 -118.0000 82° East 500 575 35,000 180 Climbing Vancouver Center
12:39PM 49.4500 -117.8167 84° East 500 575 35,000  Level Vancouver Center
12:40PM 49.4667 -117.5833 83° East 500 575 35,000  Level Vancouver Center
12:41PM 49.4833 -117.3667 76° East 500 575 35,000  Level Vancouver Center
12:42PM 49.5167 -117.1667 83° East 500 575 35,000  Level Vancouver Center
12:43PM 49.5333 -116.9500 83° East 500 575 35,000  Level Vancouver Center
12:44PM 49.5500 -116.7333 83° East 500 575 35,000  Level Vancouver Center
12:45PM 49.5667 -116.5333 77° East 500 575 35,000  Level Vancouver Center
12:46PM 49.6000 -116.3167 83° East 500 575 35,000  Level Vancouver Center
12:47PM 49.6167 -116.1167 84° East 500 575 35,000  Level Vancouver Center
12:48PM 49.6333 -115.8833 82° East 490 564 35,000  Level Vancouver Center
12:49PM 49.6500 -115.7000 83° East 490 564 35,000  Level Vancouver Center
12:50PM 49.6667 -115.4833 83° East 490 564 35,000  Level Vancouver Center
12:51PM 49.6833 -115.2667 90° East 490 564 35,000  Level Vancouver Center
12:52PM 49.6833 -115.0667 77° East 490 564 35,000  Level Vancouver Center
12:53PM 49.7167 -114.8500 90° East 490 564 35,000  Level Vancouver Center
12:54PM 49.7167 -114.7833 90° East 490 564 35,000  Level Edmonton Center
12:55PM 49.7167 -114.5667 83° East 490 564 35,000  Level Edmonton Center
12:56PM 49.7333 -114.3667 83° East 490 564 35,000  Level Edmonton Center
12:57PM 49.7500 -114.1500 83° East 490 564 35,000  Level Edmonton Center
12:58PM 49.7667 -113.9333 83° East 500 575 35,000  Level Edmonton Center
12:59PM 49.7833 -113.7167 90° East 490 564 35,000  Level Edmonton Center
01:00PM 49.7833 -113.5167 83° East 500 575 35,000  Level Edmonton Center
01:01PM 49.8000 -113.3000 83° East 500 575 35,000  Level Edmonton Center
01:02PM 49.8167 -113.1000 83° East 500 575 35,000  Level Edmonton Center
01:03PM 49.8333 -112.8833 84° East 500 575 35,000  Level Edmonton Center
01:04PM 49.8500 -112.6500 83° East 500 575 35,000  Level Edmonton Center
01:05PM 49.8667 -112.4500 77° East 500 575 35,000  Level Edmonton Center
01:05PM 49.8833 -112.3333 90° East 510 587 35,000  Level Winnipeg Center
01:06PM 49.8833 -112.1333 84° East 510 587 35,000  Level Winnipeg Center
01:07PM 49.9000 -111.9000 83° East 510 587 35,000  Level Winnipeg Center
01:08PM 49.9167 -111.6833 84° East 510 587 35,000  Level Winnipeg Center
01:09PM 49.9333 -111.4500 90° East 510 587 35,000  Level Winnipeg Center
01:10PM 49.9333 -111.2500 90° East 510 587 35,000  Level Winnipeg Center
01:11PM 49.9333 -111.0000 83° East 510 587 35,000  Level Winnipeg Center
01:12PM 49.9500 -110.8000 90° East 510 587 35,000  Level Winnipeg Center
01:13PM 49.9500 -110.6000 84° East 510 587 35,000  Level Winnipeg Center
01:14PM 49.9667 -110.3667 90° East 510 587 35,000  Level Winnipeg Center
01:15PM 49.9667 -110.1500 83° East 500 575 35,000  Level Winnipeg Center
01:16PM 49.9833 -109.9500 97° East 500 575 35,000  Level Winnipeg Center
01:17PM 49.9667 -109.7333 83° East 500 575 35,000  Level Winnipeg Center
01:18PM 49.9833 -109.5167 97° East 490 564 35,000  Level Winnipeg Center
01:19PM 49.9667 -109.3000 90° East 500 575 35,000  Level Winnipeg Center
01:20PM 49.9667 -109.0667 90° East 500 575 35,000  Level Winnipeg Center
01:21PM 49.9667 -108.8667 90° East 490 564 35,000  Level Winnipeg Center
01:22PM 49.9667 -108.6833 96° East 490 564 35,000  Level Winnipeg Center
01:23PM 49.9500 -108.4333 90° East 490 564 35,000  Level Winnipeg Center
01:24PM 49.9500 -108.2500 90° East 490 564 35,000  Level Winnipeg Center
01:25PM 49.9500 -108.0167 90° East 490 564 35,000  Level Winnipeg Center
01:26PM 49.9500 -107.8167 97° East 490 564 35,000  Level Winnipeg Center
01:27PM 49.9333 -107.6167 90° East 480 552 35,000  Level Winnipeg Center
01:28PM 49.9333 -107.4167 97° East 480 552 35,000  Level Winnipeg Center
01:29PM 49.9167 -107.2000 90° East 480 552 35,000  Level Winnipeg Center
01:30PM 49.9167 -106.9833 90° East 470 541 35,000  Level Winnipeg Center
01:31PM 49.9167 -106.7833 90° East 470 541 35,000  Level Winnipeg Center
01:32PM 49.9167 -106.6000 97° East 470 541 35,000  Level Winnipeg Center
01:33PM 49.9000 -106.3833 98° East 460 529 35,000  Level Winnipeg Center
01:34PM 49.8833 -106.2000 97° East 450 518 35,000  Level Winnipeg Center
01:35PM 49.8667 -105.9833 90° East 450 518 35,000  Level Winnipeg Center
01:36PM 49.8667 -105.8000 90° East 450 518 35,000  Level Winnipeg Center
01:37PM 49.8667 -105.6167 97° East 450 518 35,000  Level Winnipeg Center
01:38PM 49.8500 -105.4167 90° East 450 518 35,000  Level Winnipeg Center
01:39PM 49.8500 -105.2333 90° East 450 518 35,000  Level Winnipeg Center
01:40PM 49.8500 -105.0167 98° East 460 529 35,000  Level Winnipeg Center
01:41PM 49.8333 -104.8333 97° East 470 541 35,000  Level Winnipeg Center
01:42PM 49.8167 -104.6167 97° East 480 552 35,000  Level Winnipeg Center
01:43PM 49.8000 -104.4167 90° East 480 552 35,000  Level Winnipeg Center
01:44PM 49.8000 -104.2000 98° East 480 552 35,000  Level Winnipeg Center
01:45PM 49.7833 -104.0167 97° East 470 541 35,000  Level Winnipeg Center
01:46PM 49.7667 -103.8167 90° East 470 541 35,000  Level Winnipeg Center
01:47PM 49.7667 -103.6000 97° East 470 541 35,000  Level Winnipeg Center
01:48PM 49.7500 -103.4000 90° East 470 541 35,000  Level Winnipeg Center
01:49PM 49.7500 -103.1833 106° East 470 541 35,000  Level Winnipeg Center
01:50PM 49.7167 -103.0000 90° East 470 541 35,000  Level Winnipeg Center
01:51PM 49.7167 -102.7833 104° East 470 541 35,000  Level Winnipeg Center
01:52PM 49.6833 -102.5833 90° East 470 541 35,000  Level Winnipeg Center
01:53PM 49.6833 -102.3667 90° East 470 541 35,000  Level Winnipeg Center
01:54PM 49.6833 -102.1833 104° East 470 541 35,000  Level Winnipeg Center
01:55PM 49.6500 -101.9833 97° East 470 541 35,000  Level Winnipeg Center
01:56PM 49.6333 -101.7667 97° East 470 541 35,100  Climbing Winnipeg Center
01:57PM 49.6167 -101.5667 90° East 470 541 35,000 -60 Descending Winnipeg Center
01:58PM 49.6167 -101.3833 103° East 470 541 35,000  Level Winnipeg Center
01:59PM 49.5833 -101.1667 98° East 470 541 35,000  Level Winnipeg Center
02:00PM 49.5667 -100.9833 98° East 460 529 35,000  Level Winnipeg Center
02:01PM 49.5500 -100.8000 97° East 460 529 35,000  Level Winnipeg Center
02:02PM 49.5333 -100.6000 90° East 450 518 35,000  Level Winnipeg Center
02:03PM 49.5333 -100.4167 104° East 450 518 35,000  Level Winnipeg Center
02:04PM 49.5000 -100.2167 98° East 460 529 35,000  Level Winnipeg Center
02:05PM 49.4833 -100.0333 90° East 460 529 35,000  Level Winnipeg Center
02:06PM 49.4833 -99.8167 90° East 460 529 35,000  Level Winnipeg Center
02:07PM 49.4833 -99.6167 97° East 460 529 35,000  Level Winnipeg Center
02:08PM 49.4667 -99.4167 90° East 460 529 35,000  Level Winnipeg Center
02:09PM 49.4667 -99.2333 83° East 450 518 35,000  Level Winnipeg Center
02:10PM 49.4833 -99.0333 98° East 460 529 35,100  Climbing Winnipeg Center
02:11PM 49.4667 -98.8500 90° East 460 529 35,000 -60 Descending Winnipeg Center
02:12PM 49.4667 -98.6333 99° East 460 529 35,000  Level Winnipeg Center
02:13PM 49.4500 -98.4667 90° East 460 529 35,000  Level Winnipeg Center
02:14PM 49.4500 -98.2833 90° East 460 529 35,000  Level Winnipeg Center
02:15PM 49.4500 -98.0667 97° East 460 529 35,000  Level Winnipeg Center
02:16PM 49.4333 -97.8667 83° East 460 529 35,000  Level Winnipeg Center
02:17PM 49.4500 -97.6667 90° East 470 541 35,100  Climbing Winnipeg Center
02:18PM 49.4500 -97.4833 97° East 460 529 35,000 -60 Descending Winnipeg Center
02:19PM 49.4333 -97.2667 90° East 460 529 35,000  Level Winnipeg Center
02:20PM 49.4333 -97.0667 97° East 460 529 35,000  Level Winnipeg Center
02:21PM 49.4167 -96.8667 90° East 470 541 35,000  Level Winnipeg Center
02:22PM 49.4167 -96.6833 90° East 470 541 35,000  Level Winnipeg Center
02:23PM 49.4167 -96.4500 98° East 470 541 35,000  Level Winnipeg Center
02:24PM 49.4000 -96.2667 97° East 470 541 35,000  Level Winnipeg Center
02:25PM 49.3833 -96.0667 90° East 470 541 35,000  Level Winnipeg Center
02:26PM 49.3833 -95.8667 97° East 470 541 35,000  Level Winnipeg Center
02:27PM 49.3667 -95.6500 90° East 460 529 35,000  Level Winnipeg Center
02:28PM 49.3667 -95.4833 90° East 460 529 35,000  Level Winnipeg Center
02:29PM 49.3667 -95.2667 97° East 460 529 35,000  Level Winnipeg Center
02:30PM 49.3500 -95.0667 98° East 460 529 35,000  Level Winnipeg Center
02:31PM 49.3333 -94.8833 97° East 460 529 35,000  Level Winnipeg Center
02:32PM 49.3167 -94.6833 90° East 460 529 35,000  Level Winnipeg Center
02:33PM 49.3167 -94.4833 90° East 460 529 35,000  Level Winnipeg Center
02:34PM 49.3167 -94.2667 107° East 470 541 35,000  Level Winnipeg Center
02:35PM 49.2833 -94.1000 90° East 460 529 35,000  Level Winnipeg Center
02:36PM 49.2833 -93.8833 90° East 460 529 35,000  Level Winnipeg Center
02:37PM 49.2833 -93.6833 105° East 460 529 35,000  Level Winnipeg Center
02:38PM 49.2500 -93.5000 90° East 460 529 35,000  Level Winnipeg Center
02:39PM 49.2500 -93.3000 97° East 460 529 35,000  Level Winnipeg Center
02:40PM 49.2333 -93.1000 98° East 460 529 35,000  Level Winnipeg Center
02:41PM 49.2167 -92.9167 90° East 460 529 35,000  Level Winnipeg Center
02:42PM 49.2167 -92.7167 104° East 460 529 35,000  Level Winnipeg Center
02:43PM 49.1833 -92.5167 90° East 460 529 35,000  Level Winnipeg Center
02:44PM 49.1833 -92.3333 97° East 460 529 35,000  Level Winnipeg Center
02:45PM 49.1667 -92.1333 97° East 460 529 35,000  Level Winnipeg Center
02:46PM 49.1500 -91.9333 97° East 460 529 35,000  Level Winnipeg Center
02:47PM 49.1333 -91.7167 99° East 460 529 35,000  Level Winnipeg Center
02:48PM 49.1167 -91.5500 97° East 460 529 35,000  Level Winnipeg Center
02:49PM 49.1000 -91.3500 97° East 460 529 35,000  Level Winnipeg Center
02:50PM 49.0833 -91.1333 99° East 460 529 35,000  Level Winnipeg Center
02:51PM 49.0667 -90.9667 97° East 460 529 35,000  Level Winnipeg Center
02:52PM 49.0500 -90.7667 98° East 460 529 35,000  Level Winnipeg Center
02:53PM 49.0333 -90.5833 97° East 460 529 35,000  Level Winnipeg Center
02:54PM 49.0167 -90.3833 97° East 460 529 35,000  Level Winnipeg Center
02:55PM 49.0000 -90.1833 104° East 460 529 35,000  Level Winnipeg Center
02:56PM 48.9667 -89.9833 90° East 460 529 35,000  Level Winnipeg Center
02:57PM 48.9667 -89.8000 90° East 470 541 35,000  Level Winnipeg Center
02:58PM 48.9667 -89.6000 97° East 460 529 35,000 240 Level Winnipeg Center
02:59PM 48.9500 -89.4000 98° East 450 518 35,500 600 Climbing Winnipeg Center
03:00PM 48.9333 -89.2167 90° East 440 506 36,200 420 Climbing Winnipeg Center
03:01PM 48.9333 -89.0333 97° East 450 518 36,400 240 Climbing Winnipeg Center
03:02PM 48.9167 -88.8333 97° East 450 518 36,700 180 Climbing Winnipeg Center
03:03PM 48.9000 -88.6333 97° East 460 529 36,800 120 Climbing Winnipeg Center
03:04PM 48.8833 -88.4333 99° East 470 541 37,000 60 Climbing Winnipeg Center
03:05PM 48.8667 -88.2667 97° East 470 541 37,000  Level Winnipeg Center
03:06PM 48.8500 -88.0500 97° East 470 541 37,000  Level Winnipeg Center
03:07PM 48.8333 -87.8500 99° East 460 529 37,000  Level Winnipeg Center
03:08PM 48.8167 -87.6833 90° East 450 518 37,000  Level Winnipeg Center
03:09PM 48.8167 -87.4833 98° East 450 518 37,000  Level Winnipeg Center
03:10PM 48.8000 -87.3000 97° East 460 529 37,000  Level Winnipeg Center
03:11PM 48.7833 -87.1000 97° East 460 529 37,100  Climbing Winnipeg Center
03:12PM 48.7667 -86.9000 98° East 460 529 37,000 -60 Descending Winnipeg Center
03:13PM 48.7500 -86.7167 97° East 460 529 37,000  Level Winnipeg Center
03:14PM 48.7333 -86.5167 99° East 460 529 37,000  Level Winnipeg Center
03:15PM 48.7167 -86.3500 97° East 450 518 37,000  Level Winnipeg Center
03:16PM 48.7000 -86.1500 104° East 450 518 37,000  Level Winnipeg Center
03:17PM 48.6667 -85.9500 104° East 460 529 37,000  Level Winnipeg Center
03:18PM 48.6333 -85.7500 107° East 460 529 37,000  Level Winnipeg Center
03:19PM 48.6000 -85.5833 113° Southeast 460 529 37,000  Level Winnipeg Center
03:20PM 48.5667 -85.4667 107° East 460 529 37,000  Level Toronto Center
03:21PM 48.5333 -85.3000 103° East 460 529 37,000  Level Toronto Center
03:22PM 48.5000 -85.0833 107° East 460 529 37,000  Level Toronto Center
03:23PM 48.4667 -84.9167 112° Southeast 460 529 37,000  Level Toronto Center
03:24PM 48.4167 -84.7333 98° East 460 529 37,000  Level Toronto Center
03:25PM 48.4000 -84.5500 112° Southeast 460 529 37,000  Level Toronto Center
03:26PM 48.3500 -84.3667 105° East 460 529 37,000  Level Toronto Center
03:27PM 48.3167 -84.1833 111° Southeast 460 529 37,000  Level Toronto Center
03:28PM 48.3000 -84.1167 105° East 450 518 37,000  Level Montreal Center
03:29PM 48.2667 -83.9333 112° Southeast 460 529 37,000  Level Montreal Center
03:30PM 48.2167 -83.7500 105° East 450 518 37,000  Level Montreal Center
03:31PM 48.1833 -83.5667 105° East 450 518 37,000  Level Montreal Center
03:32PM 48.1500 -83.3833 114° Southeast 450 518 37,000  Level Montreal Center
03:33PM 48.1000 -83.2167 105° East 450 518 37,000  Level Montreal Center
03:34PM 48.0667 -83.0333 105° East 450 518 37,000  Level Montreal Center
03:35PM 48.0333 -82.8500 112° Southeast 450 518 37,000  Level Montreal Center
03:36PM 47.9833 -82.6667 107° East 450 518 37,000  Level Montreal Center
03:37PM 47.9500 -82.5000 105° East 460 529 37,000  Level Montreal Center
03:38PM 47.9167 -82.3167 112° Southeast 460 529 37,000  Level Montreal Center
03:39PM 47.8667 -82.1333 105° East 460 529 37,000  Level Montreal Center
03:40PM 47.8333 -81.9500 112° Southeast 460 529 37,000  Level Montreal Center
03:41PM 47.7833 -81.7667 105° East 460 529 37,000  Level Montreal Center
03:42PM 47.7500 -81.5833 114° Southeast 460 529 37,000  Level Montreal Center
03:43PM 47.7000 -81.4167 109° East 470 541 37,000  Level Montreal Center
03:44PM 47.6500 -81.2000 116° Southeast 460 529 37,000  Level Montreal Center
03:45PM 47.6000 -81.0500 104° East 470 541 37,000  Level Montreal Center
03:46PM 47.5667 -80.8500 112° Southeast 470 541 37,000  Level Montreal Center
03:47PM 47.5167 -80.6667 105° East 470 541 37,000  Level Montreal Center
03:48PM 47.4833 -80.4833 114° Southeast 470 541 37,000  Level Montreal Center
03:49PM 47.4333 -80.3167 105° East 470 541 37,000  Level Montreal Center
03:50PM 47.4000 -80.1333 110° East 470 541 37,000  Level Montreal Center
03:51PM 47.3500 -79.9333 116° Southeast 470 541 37,000  Level Montreal Center
03:52PM 47.3000 -79.7833 110° East 470 541 37,000  Level Montreal Center
03:53PM 47.2500 -79.5833 112° Southeast 470 541 37,000  Level Montreal Center
03:54PM 47.2000 -79.4000 114° Southeast 470 541 37,000  Level Montreal Center
03:55PM 47.1500 -79.2333 104° East 470 541 37,000  Level Montreal Center
03:56PM 47.1167 -79.0333 112° Southeast 470 541 37,000  Level Montreal Center
03:57PM 47.0667 -78.8500 114° Southeast 470 541 37,000  Level Montreal Center
03:58PM 47.0167 -78.6833 112° Southeast 470 541 37,000  Level Montreal Center
03:59PM 46.9667 -78.5000 106° East 470 541 37,000 -180 Level Montreal Center
04:00PM 46.9333 -78.3333 112° Southeast 460 529 36,700 -660 Descending Montreal Center
04:01PM 46.8833 -78.1500 114° Southeast 460 529 35,700 -960 Descending Montreal Center
04:02PM 46.8333 -77.9833 112° Southeast 460 529 34,800 -960 Descending Montreal Center
04:03PM 46.7833 -77.8000 114° Southeast 460 529 33,800 -900 Descending Montreal Center
04:04PM 46.7333 -77.6333 110° East 460 529 33,000 -420 Descending Montreal Center
04:05PM 46.6833 -77.4333 108° East 460 529 33,000  Level Montreal Center
04:06PM 46.6500 -77.2833 97° East 450 518 33,000  Level Montreal Center
04:07PM 46.6333 -77.0833 106° East 450 518 33,000 -180 Level Montreal Center
04:08PM 46.6000 -76.9167 114° Southeast 450 518 32,700 -660 Descending Montreal Center
04:09PM 46.5500 -76.7500 106° East 450 518 31,700 -960 Descending Montreal Center
04:10PM 46.5167 -76.5833 105° East 450 518 30,800 -960 Descending Montreal Center
04:11PM 46.4833 -76.4000 106° East 450 518 29,800 -900 Descending Montreal Center
04:12PM 46.4500 -76.2333 106° East 440 506 29,100 -420 Descending Montreal Center
04:13PM 46.4167 -76.0667 104° East 440 506 29,000 -60 Descending Montreal Center
04:14PM 46.3833 -75.8667 106° East 440 506 29,000  Level Montreal Center
04:15PM 46.3500 -75.7000 108° East 450 518 29,000 -720 Level Montreal Center
04:17PM 46.2500 -75.2500 116° Southeast 450 518 26,500 -1,140 Descending Toronto Center
04:18PM 46.2333 -75.2000 105° East 440 506 25,600 -2,100 Descending Montreal Center
04:19PM 46.2000 -75.0167 118° Southeast 430 495 23,400 -2,040 Descending Montreal Center
04:20PM 46.1500 -74.8833 106° East 430 495 21,600 -1,800 Descending Montreal Center
04:21PM 46.1167 -74.7167 108° East 410 472 19,800 -1,920 Descending Montreal Center
04:22PM 46.0833 -74.5667 99° East 390 449 17,800 -1,920 Descending Montreal Center
04:23PM 46.0667 -74.4167 118° Southeast 380 437 16,000 -2,100 Descending Montreal Center
04:24PM 46.0167 -74.2833 126° Southeast 360 414 13,700 -1,860 Descending Montreal Center
04:25PM 45.9667 -74.1833 134° Southeast 350 403 12,300 -1,680 Descending Montreal Center
04:26PM 45.9000 -74.0833 120° Southeast 320 368 10,400 -1,560 Descending Montreal Center
04:27PM 45.8667 -74.0000 126° Southeast 280 322 9,200 -1,260 Descending Montreal Center
04:28PM 45.8167 -73.9000 116° Southeast 270 311 7,900 -1,440 Descending Montreal Center
04:29PM 45.7833 -73.8000 137° Southeast 260 299 6,400 -1,500 Descending Montreal Center
04:30PM 45.7333 -73.7333 115° Southeast 250 288 5,000 -1,380 Descending Montreal Center
04:31PM 45.7000 -73.6333 155° Southeast 250 288 3,700 -960 Descending Montreal Center
04:32PM 45.6500 -73.6000 155° Southeast 240 276 3,100 -360 Descending Montreal Center
04:33PM 45.6000 -73.5667 226° Southwest 210 242 3,000 -300 Descending Montreal Center
04:34PM 45.5667 -73.6167 215° Southwest 180 207 2,500 -720 Descending Montreal Center
04:35PM 45.5333 -73.6500 215° Southwest 170 196 1,600 -900 Descending Montreal Center